sensor_id;sensor_type;location;lat;lon;timestamp;temperature;humidity
27200;DHT22;14714;48.106;11.546;2022-11-24T00:01:14;6.80;99.90
27200;DHT22;14714;48.106;11.546;2022-11-24T00:03:43;6.80;99.90
27200;DHT22;14714;48.106;11.546;2022-11-24T00:06:14;6.90;99.90
27200;DHT22;14714;48.106;11.546;2022-11-24T00:08:43;6.90;99.90
27200;DHT22;14714;48.106;11.546;2022-11-24T00:11:12;6.90;99.90
27200;DHT22;14714;48.106;11.546;2022-11-24T00:13:40;6.90;99.90
27200;DHT22;14714;48.106;11.546;2022-11-24T00:16:34;6.90;99.90
27200;DHT22;14714;48.106;11.546;2022-11-24T00:19:00;6.90;99.90
27200;DHT22;14714;48.106;11.546;2022-11-24T00:21:29;6.90;99.90
27200;DHT22;14714;48.106;11.546;2022-11-24T00:23:56;6.80;99.90
27200;DHT22;14714;48.106;11.546;2022-11-24T00:26:31;6.80;99.90
27200;DHT22;14714;48.106;11.546;2022-11-24T00:29:00;6.80;99.90
27200;DHT22;14714;48.106;11.546;2022-11-24T00:31:28;6.90;99.90
27200;DHT22;14714;48.106;11.546;2022-11-24T00:33:57;6.90;99.90
27200;DHT22;14714;48.106;11.546;2022-11-24T00:36:29;6.80;99.90
27200;DHT22;14714;48.106;11.546;2022-11-24T00:39:01;6.80;99.90
27200;DHT22;14714;48.106;11.546;2022-11-24T00:41:29;6.80;99.90
27200;DHT22;14714;48.106;11.546;2022-11-24T00:43:56;6.80;99.90
27200;DHT22;14714;48.106;11.546;2022-11-24T00:46:24;6.80;99.90
27200;DHT22;14714;48.106;11.546;2022-11-24T00:48:52;6.70;99.90
27200;DHT22;14714;48.106;11.546;2022-11-24T00:51:21;6.70;99.90
27200;DHT22;14714;48.106;11.546;2022-11-24T00:53:48;6.70;99.90
27200;DHT22;14714;48.106;11.546;2022-11-24T00:56:15;6.70;99.90
27200;DHT22;14714;48.106;11.546;2022-11-24T00:58:42;6.70;99.90
27200;DHT22;14714;48.106;11.546;2022-11-24T01:01:17;6.70;99.90
27200;DHT22;14714;48.106;11.546;2022-11-24T01:03:44;6.70;99.90
27200;DHT22;14714;48.106;11.546;2022-11-24T01:06:31;6.70;99.90
27200;DHT22;14714;48.106;11.546;2022-11-24T01:08:58;6.70;99.90
27200;DHT22;14714;48.106;11.546;2022-11-24T01:11:27;6.70;99.90
27200;DHT22;14714;48.106;11.546;2022-11-24T01:13:57;6.70;99.90
27200;DHT22;14714;48.106;11.546;2022-11-24T01:16:29;6.80;99.90
27200;DHT22;14714;48.106;11.546;2022-11-24T01:18:57;6.70;99.90
27200;DHT22;14714;48.106;11.546;2022-11-24T01:21:24;6.70;99.90
27200;DHT22;14714;48.106;11.546;2022-11-24T01:23:51;6.70;99.90
27200;DHT22;14714;48.106;11.546;2022-11-24T01:26:20;6.60;99.90
27200;DHT22;14714;48.106;11.546;2022-11-24T01:28:50;6.50;99.90
27200;DHT22;14714;48.106;11.546;2022-11-24T01:31:17;6.50;99.90
27200;DHT22;14714;48.106;11.546;2022-11-24T01:33:44;6.50;99.90
27200;DHT22;14714;48.106;11.546;2022-11-24T01:36:11;6.50;99.90
27200;DHT22;14714;48.106;11.546;2022-11-24T01:38:37;6.50;99.90
27200;DHT22;14714;48.106;11.546;2022-11-24T01:41:11;6.50;99.90
27200;DHT22;14714;48.106;11.546;2022-11-24T01:43:38;6.50;99.90
27200;DHT22;14714;48.106;11.546;2022-11-24T01:46:16;6.50;99.90
27200;DHT22;14714;48.106;11.546;2022-11-24T01:49:44;6.50;99.90
27200;DHT22;14714;48.106;11.546;2022-11-24T01:51:56;6.50;99.90
27200;DHT22;14714;48.106;11.546;2022-11-24T01:54:30;6.50;99.90
27200;DHT22;14714;48.106;11.546;2022-11-24T01:57:26;6.60;99.90
27200;DHT22;14714;48.106;11.546;2022-11-24T02:00:00;6.60;99.90
27200;DHT22;14714;48.106;11.546;2022-11-24T02:02:29;6.60;99.90
27200;DHT22;14714;48.106;11.546;2022-11-24T02:04:59;6.60;99.90
27200;DHT22;14714;48.106;11.546;2022-11-24T02:07:29;6.60;99.90
27200;DHT22;14714;48.106;11.546;2022-11-24T02:10:02;6.60;99.90
27200;DHT22;14714;48.106;11.546;2022-11-24T02:12:30;6.50;99.90
27200;DHT22;14714;48.106;11.546;2022-11-24T02:14:58;6.50;99.90
27200;DHT22;14714;48.106;11.546;2022-11-24T02:17:24;6.50;99.90
27200;DHT22;14714;48.106;11.546;2022-11-24T02:19:59;6.60;99.90
27200;DHT22;14714;48.106;11.546;2022-11-24T02:27:48;6.60;99.90
27200;DHT22;14714;48.106;11.546;2022-11-24T02:30:19;6.60;99.90
27200;DHT22;14714;48.106;11.546;2022-11-24T02:32:46;6.60;99.90
27200;DHT22;14714;48.106;11.546;2022-11-24T02:35:13;6.60;99.90
27200;DHT22;14714;48.106;11.546;2022-11-24T02:37:40;6.70;99.90
27200;DHT22;14714;48.106;11.546;2022-11-24T02:40:07;6.70;99.90
27200;DHT22;14714;48.106;11.546;2022-11-24T02:42:38;6.70;99.90
27200;DHT22;14714;48.106;11.546;2022-11-24T02:45:08;6.70;99.90
27200;DHT22;14714;48.106;11.546;2022-11-24T02:47:36;6.70;99.90
27200;DHT22;14714;48.106;11.546;2022-11-24T02:50:03;6.80;99.90
27200;DHT22;14714;48.106;11.546;2022-11-24T02:52:30;6.80;99.90
27200;DHT22;14714;48.106;11.546;2022-11-24T02:54:57;6.80;99.90
27200;DHT22;14714;48.106;11.546;2022-11-24T02:57:24;6.80;99.90
27200;DHT22;14714;48.106;11.546;2022-11-24T02:59:50;6.80;99.90
27200;DHT22;14714;48.106;11.546;2022-11-24T03:02:17;6.80;99.90
27200;DHT22;14714;48.106;11.546;2022-11-24T03:04:44;6.80;99.90
27200;DHT22;14714;48.106;11.546;2022-11-24T03:07:10;6.80;99.90
27200;DHT22;14714;48.106;11.546;2022-11-24T03:09:37;6.80;99.90
27200;DHT22;14714;48.106;11.546;2022-11-24T03:12:04;6.80;99.90
27200;DHT22;14714;48.106;11.546;2022-11-24T03:14:31;6.80;99.90
27200;DHT22;14714;48.106;11.546;2022-11-24T03:16:58;6.80;99.90
27200;DHT22;14714;48.106;11.546;2022-11-24T03:19:25;6.80;99.90
27200;DHT22;14714;48.106;11.546;2022-11-24T03:21:52;6.90;99.90
27200;DHT22;14714;48.106;11.546;2022-11-24T03:24:18;6.90;99.90
27200;DHT22;14714;48.106;11.546;2022-11-24T03:26:45;6.90;99.90
27200;DHT22;14714;48.106;11.546;2022-11-24T03:29:12;6.90;99.90
27200;DHT22;14714;48.106;11.546;2022-11-24T03:31:38;6.90;99.90
27200;DHT22;14714;48.106;11.546;2022-11-24T03:34:05;6.90;99.90
27200;DHT22;14714;48.106;11.546;2022-11-24T03:36:32;6.90;99.90
27200;DHT22;14714;48.106;11.546;2022-11-24T03:38:59;6.90;99.90
27200;DHT22;14714;48.106;11.546;2022-11-24T03:41:25;6.90;99.90
27200;DHT22;14714;48.106;11.546;2022-11-24T03:43:52;6.90;99.90
27200;DHT22;14714;48.106;11.546;2022-11-24T03:46:19;6.90;99.90
27200;DHT22;14714;48.106;11.546;2022-11-24T03:48:46;6.90;99.90
27200;DHT22;14714;48.106;11.546;2022-11-24T03:51:12;6.90;99.90
27200;DHT22;14714;48.106;11.546;2022-11-24T03:53:39;6.90;99.90
27200;DHT22;14714;48.106;11.546;2022-11-24T03:56:06;6.90;99.90
27200;DHT22;14714;48.106;11.546;2022-11-24T03:58:33;7.00;99.90
27200;DHT22;14714;48.106;11.546;2022-11-24T04:00:59;7.00;99.90
27200;DHT22;14714;48.106;11.546;2022-11-24T04:03:26;7.00;99.90
27200;DHT22;14714;48.106;11.546;2022-11-24T04:05:53;7.00;99.90
27200;DHT22;14714;48.106;11.546;2022-11-24T04:08:20;6.90;99.90
27200;DHT22;14714;48.106;11.546;2022-11-24T04:10:51;6.90;99.90
27200;DHT22;14714;48.106;11.546;2022-11-24T04:13:21;6.80;99.90
27200;DHT22;14714;48.106;11.546;2022-11-24T04:15:48;6.80;99.90
27200;DHT22;14714;48.106;11.546;2022-11-24T04:18:15;6.80;99.90
27200;DHT22;14714;48.106;11.546;2022-11-24T04:20:42;6.80;99.90
27200;DHT22;14714;48.106;11.546;2022-11-24T04:23:09;6.70;99.90
27200;DHT22;14714;48.106;11.546;2022-11-24T04:25:36;6.60;99.90
27200;DHT22;14714;48.106;11.546;2022-11-24T04:28:03;6.60;99.90
27200;DHT22;14714;48.106;11.546;2022-11-24T04:30:30;6.60;99.90
27200;DHT22;14714;48.106;11.546;2022-11-24T04:32:57;6.50;99.90
27200;DHT22;14714;48.106;11.546;2022-11-24T04:35:24;6.50;99.90
27200;DHT22;14714;48.106;11.546;2022-11-24T04:37:51;6.50;99.90
27200;DHT22;14714;48.106;11.546;2022-11-24T04:40:18;6.60;99.90
27200;DHT22;14714;48.106;11.546;2022-11-24T04:42:54;6.60;99.90
27200;DHT22;14714;48.106;11.546;2022-11-24T04:45:22;6.60;99.90
27200;DHT22;14714;48.106;11.546;2022-11-24T04:47:49;6.60;99.90
27200;DHT22;14714;48.106;11.546;2022-11-24T04:50:16;6.70;99.90
27200;DHT22;14714;48.106;11.546;2022-11-24T04:52:43;6.70;99.90
27200;DHT22;14714;48.106;11.546;2022-11-24T04:55:10;6.80;99.90
27200;DHT22;14714;48.106;11.546;2022-11-24T04:57:37;6.80;99.90
27200;DHT22;14714;48.106;11.546;2022-11-24T05:00:05;6.90;99.90
27200;DHT22;14714;48.106;11.546;2022-11-24T05:02:32;6.90;99.90
27200;DHT22;14714;48.106;11.546;2022-11-24T05:04:58;6.90;99.90
27200;DHT22;14714;48.106;11.546;2022-11-24T05:07:25;7.00;99.90
27200;DHT22;14714;48.106;11.546;2022-11-24T05:09:52;7.00;99.90
27200;DHT22;14714;48.106;11.546;2022-11-24T05:12:37;7.00;99.90
27200;DHT22;14714;48.106;11.546;2022-11-24T05:15:05;7.00;99.90
27200;DHT22;14714;48.106;11.546;2022-11-24T05:17:35;7.00;99.90
27200;DHT22;14714;48.106;11.546;2022-11-24T05:20:04;7.00;99.90
27200;DHT22;14714;48.106;11.546;2022-11-24T05:22:31;7.00;99.90
27200;DHT22;14714;48.106;11.546;2022-11-24T05:24:58;7.10;99.90
27200;DHT22;14714;48.106;11.546;2022-11-24T05:27:25;7.00;99.90
27200;DHT22;14714;48.106;11.546;2022-11-24T05:29:51;7.00;99.90
27200;DHT22;14714;48.106;11.546;2022-11-24T05:32:18;7.10;99.90
27200;DHT22;14714;48.106;11.546;2022-11-24T05:34:45;7.10;99.90
27200;DHT22;14714;48.106;11.546;2022-11-24T05:37:12;7.10;99.90
27200;DHT22;14714;48.106;11.546;2022-11-24T05:39:39;7.10;99.90
27200;DHT22;14714;48.106;11.546;2022-11-24T05:42:06;7.10;99.90
27200;DHT22;14714;48.106;11.546;2022-11-24T05:44:52;7.10;99.90
27200;DHT22;14714;48.106;11.546;2022-11-24T05:47:19;7.10;99.90
27200;DHT22;14714;48.106;11.546;2022-11-24T05:49:46;7.10;99.90
27200;DHT22;14714;48.106;11.546;2022-11-24T05:52:13;7.10;99.90
27200;DHT22;14714;48.106;11.546;2022-11-24T05:54:40;7.20;99.90
27200;DHT22;14714;48.106;11.546;2022-11-24T05:57:07;7.20;99.90
27200;DHT22;14714;48.106;11.546;2022-11-24T05:59:34;7.20;99.90
27200;DHT22;14714;48.106;11.546;2022-11-24T06:02:00;7.20;99.90
27200;DHT22;14714;48.106;11.546;2022-11-24T06:04:27;7.20;99.90
27200;DHT22;14714;48.106;11.546;2022-11-24T06:06:54;7.30;99.90
27200;DHT22;14714;48.106;11.546;2022-11-24T06:09:21;7.30;99.90
27200;DHT22;14714;48.106;11.546;2022-11-24T06:11:48;7.30;99.90
27200;DHT22;14714;48.106;11.546;2022-11-24T06:14:14;7.30;99.90
27200;DHT22;14714;48.106;11.546;2022-11-24T06:16:41;7.20;99.90
27200;DHT22;14714;48.106;11.546;2022-11-24T06:19:09;7.30;99.90
27200;DHT22;14714;48.106;11.546;2022-11-24T06:21:36;7.30;99.90
27200;DHT22;14714;48.106;11.546;2022-11-24T06:24:03;7.30;99.90
27200;DHT22;14714;48.106;11.546;2022-11-24T06:26:30;7.30;99.90
27200;DHT22;14714;48.106;11.546;2022-11-24T06:28:57;7.30;99.90
27200;DHT22;14714;48.106;11.546;2022-11-24T06:31:24;7.30;99.90
27200;DHT22;14714;48.106;11.546;2022-11-24T06:33:51;7.30;99.90
27200;DHT22;14714;48.106;11.546;2022-11-24T06:36:18;7.30;99.90
27200;DHT22;14714;48.106;11.546;2022-11-24T06:38:45;7.40;99.90
27200;DHT22;14714;48.106;11.546;2022-11-24T06:41:14;7.40;99.90
27200;DHT22;14714;48.106;11.546;2022-11-24T06:43:41;7.40;99.90
27200;DHT22;14714;48.106;11.546;2022-11-24T06:46:08;7.40;99.90
27200;DHT22;14714;48.106;11.546;2022-11-24T06:48:36;7.40;99.90
27200;DHT22;14714;48.106;11.546;2022-11-24T06:51:07;7.40;99.90
27200;DHT22;14714;48.106;11.546;2022-11-24T06:53:37;7.40;99.90
27200;DHT22;14714;48.106;11.546;2022-11-24T06:56:06;7.40;99.90
27200;DHT22;14714;48.106;11.546;2022-11-24T06:58:43;7.30;99.90
27200;DHT22;14714;48.106;11.546;2022-11-24T07:01:36;7.40;99.90
27200;DHT22;14714;48.106;11.546;2022-11-24T07:04:03;7.40;99.90
27200;DHT22;14714;48.106;11.546;2022-11-24T07:06:30;7.40;99.90
27200;DHT22;14714;48.106;11.546;2022-11-24T07:08:57;7.40;99.90
27200;DHT22;14714;48.106;11.546;2022-11-24T07:11:23;7.40;99.90
27200;DHT22;14714;48.106;11.546;2022-11-24T07:13:50;7.40;99.90
27200;DHT22;14714;48.106;11.546;2022-11-24T07:16:25;7.50;99.90
27200;DHT22;14714;48.106;11.546;2022-11-24T07:18:53;7.50;99.90
27200;DHT22;14714;48.106;11.546;2022-11-24T07:21:21;7.50;99.90
27200;DHT22;14714;48.106;11.546;2022-11-24T07:23:52;7.50;99.90
27200;DHT22;14714;48.106;11.546;2022-11-24T07:26:20;7.60;99.90
27200;DHT22;14714;48.106;11.546;2022-11-24T07:28:47;7.60;99.90
27200;DHT22;14714;48.106;11.546;2022-11-24T07:31:17;7.60;99.90
27200;DHT22;14714;48.106;11.546;2022-11-24T07:33:48;7.50;99.90
27200;DHT22;14714;48.106;11.546;2022-11-24T07:36:15;7.50;99.90
27200;DHT22;14714;48.106;11.546;2022-11-24T07:38:42;7.40;99.90
27200;DHT22;14714;48.106;11.546;2022-11-24T07:41:10;7.40;99.90
27200;DHT22;14714;48.106;11.546;2022-11-24T07:43:38;7.40;99.90
27200;DHT22;14714;48.106;11.546;2022-11-24T07:46:07;7.70;99.90
27200;DHT22;14714;48.106;11.546;2022-11-24T07:48:35;7.80;99.90
27200;DHT22;14714;48.106;11.546;2022-11-24T07:51:02;7.90;99.90
27200;DHT22;14714;48.106;11.546;2022-11-24T07:53:30;8.10;99.90
27200;DHT22;14714;48.106;11.546;2022-11-24T07:55:59;8.20;99.90
27200;DHT22;14714;48.106;11.546;2022-11-24T07:58:31;8.40;99.90
27200;DHT22;14714;48.106;11.546;2022-11-24T08:00:59;8.30;99.90
27200;DHT22;14714;48.106;11.546;2022-11-24T08:03:26;8.30;99.90
27200;DHT22;14714;48.106;11.546;2022-11-24T08:05:55;8.30;99.90
27200;DHT22;14714;48.106;11.546;2022-11-24T08:08:42;8.30;99.90
27200;DHT22;14714;48.106;11.546;2022-11-24T08:11:11;8.30;99.90
27200;DHT22;14714;48.106;11.546;2022-11-24T08:13:38;8.30;99.90
27200;DHT22;14714;48.106;11.546;2022-11-24T08:16:07;8.40;99.90
27200;DHT22;14714;48.106;11.546;2022-11-24T08:18:35;8.50;99.90
27200;DHT22;14714;48.106;11.546;2022-11-24T08:21:03;8.50;99.90
27200;DHT22;14714;48.106;11.546;2022-11-24T08:23:31;8.70;99.90
27200;DHT22;14714;48.106;11.546;2022-11-24T08:25:58;9.10;99.90
27200;DHT22;14714;48.106;11.546;2022-11-24T08:28:30;9.70;99.90
27200;DHT22;14714;48.106;11.546;2022-11-24T08:31:02;10.20;99.90
27200;DHT22;14714;48.106;11.546;2022-11-24T08:33:29;10.50;99.90
27200;DHT22;14714;48.106;11.546;2022-11-24T08:36:04;10.50;99.90
27200;DHT22;14714;48.106;11.546;2022-11-24T08:38:32;10.50;99.90
27200;DHT22;14714;48.106;11.546;2022-11-24T08:41:03;10.30;99.90
27200;DHT22;14714;48.106;11.546;2022-11-24T08:43:31;10.20;99.90
27200;DHT22;14714;48.106;11.546;2022-11-24T08:46:02;10.20;99.90
27200;DHT22;14714;48.106;11.546;2022-11-24T08:48:29;10.30;99.90
27200;DHT22;14714;48.106;11.546;2022-11-24T08:50:57;10.30;99.90
27200;DHT22;14714;48.106;11.546;2022-11-24T08:53:24;10.30;99.90
27200;DHT22;14714;48.106;11.546;2022-11-24T08:55:51;10.30;99.90
27200;DHT22;14714;48.106;11.546;2022-11-24T08:58:18;10.30;99.90
27200;DHT22;14714;48.106;11.546;2022-11-24T09:00:45;10.60;99.90
27200;DHT22;14714;48.106;11.546;2022-11-24T09:03:11;10.90;99.90
27200;DHT22;14714;48.106;11.546;2022-11-24T09:05:38;11.50;99.90
27200;DHT22;14714;48.106;11.546;2022-11-24T09:08:20;12.20;99.90
27200;DHT22;14714;48.106;11.546;2022-11-24T09:10:47;12.60;99.90
27200;DHT22;14714;48.106;11.546;2022-11-24T09:13:14;12.50;99.90
27200;DHT22;14714;48.106;11.546;2022-11-24T09:15:40;12.20;99.90
27200;DHT22;14714;48.106;11.546;2022-11-24T09:18:07;11.80;99.90
27200;DHT22;14714;48.106;11.546;2022-11-24T09:20:34;11.40;99.90
27200;DHT22;14714;48.106;11.546;2022-11-24T09:23:01;11.10;99.90
27200;DHT22;14714;48.106;11.546;2022-11-24T09:25:27;10.90;99.90
27200;DHT22;14714;48.106;11.546;2022-11-24T09:27:54;10.90;99.90
27200;DHT22;14714;48.106;11.546;2022-11-24T09:30:21;10.80;99.90
27200;DHT22;14714;48.106;11.546;2022-11-24T09:32:48;10.80;99.90
27200;DHT22;14714;48.106;11.546;2022-11-24T09:35:15;10.70;99.90
27200;DHT22;14714;48.106;11.546;2022-11-24T09:37:42;10.60;99.90
27200;DHT22;14714;48.106;11.546;2022-11-24T09:40:12;10.60;99.90
27200;DHT22;14714;48.106;11.546;2022-11-24T09:42:52;10.60;99.90
27200;DHT22;14714;48.106;11.546;2022-11-24T09:48:40;10.50;99.90
27200;DHT22;14714;48.106;11.546;2022-11-24T09:51:11;10.50;99.90
27200;DHT22;14714;48.106;11.546;2022-11-24T09:53:42;10.50;99.90
27200;DHT22;14714;48.106;11.546;2022-11-24T09:59:04;10.60;99.90
27200;DHT22;14714;48.106;11.546;2022-11-24T10:01:36;10.70;99.90
27200;DHT22;14714;48.106;11.546;2022-11-24T10:04:25;10.90;99.90
27200;DHT22;14714;48.106;11.546;2022-11-24T10:07:07;11.10;99.90
27200;DHT22;14714;48.106;11.546;2022-11-24T10:10:07;11.20;99.90
27200;DHT22;14714;48.106;11.546;2022-11-24T10:16:02;11.30;99.90
27200;DHT22;14714;48.106;11.546;2022-11-24T10:26:37;10.80;99.90
27200;DHT22;14714;48.106;11.546;2022-11-24T10:29:28;10.60;99.90
27200;DHT22;14714;48.106;11.546;2022-11-24T10:31:56;10.40;99.90
27200;DHT22;14714;48.106;11.546;2022-11-24T10:34:47;10.10;99.90
27200;DHT22;14714;48.106;11.546;2022-11-24T10:37:35;9.90;99.90
27200;DHT22;14714;48.106;11.546;2022-11-24T10:40:11;9.60;99.90
27200;DHT22;14714;48.106;11.546;2022-11-24T10:42:59;9.40;99.90
27200;DHT22;14714;48.106;11.546;2022-11-24T10:45:27;9.20;99.90
27200;DHT22;14714;48.106;11.546;2022-11-24T10:47:56;9.00;99.90
27200;DHT22;14714;48.106;11.546;2022-11-24T10:50:32;8.80;99.90
27200;DHT22;14714;48.106;11.546;2022-11-24T10:53:21;8.60;99.90
27200;DHT22;14714;48.106;11.546;2022-11-24T11:00:50;8.10;99.90
27200;DHT22;14714;48.106;11.546;2022-11-24T11:03:35;7.90;99.90
27200;DHT22;14714;48.106;11.546;2022-11-24T11:06:12;7.80;99.90
27200;DHT22;14714;48.106;11.546;2022-11-24T11:08:39;7.80;99.90
27200;DHT22;14714;48.106;11.546;2022-11-24T11:11:18;7.70;99.90
27200;DHT22;14714;48.106;11.546;2022-11-24T11:13:47;7.70;99.90
27200;DHT22;14714;48.106;11.546;2022-11-24T11:16:36;7.70;99.90
27200;DHT22;14714;48.106;11.546;2022-11-24T11:19:29;7.70;99.90
27200;DHT22;14714;48.106;11.546;2022-11-24T11:24:40;7.80;99.90
27200;DHT22;14714;48.106;11.546;2022-11-24T11:27:22;7.90;99.90
27200;DHT22;14714;48.106;11.546;2022-11-24T11:29:50;7.90;99.90
27200;DHT22;14714;48.106;11.546;2022-11-24T11:32:53;7.90;99.90
27200;DHT22;14714;48.106;11.546;2022-11-24T11:35:41;7.90;99.90
27200;DHT22;14714;48.106;11.546;2022-11-24T11:38:10;7.90;99.90
27200;DHT22;14714;48.106;11.546;2022-11-24T11:40:38;7.90;99.90
27200;DHT22;14714;48.106;11.546;2022-11-24T11:46:20;7.90;99.90
27200;DHT22;14714;48.106;11.546;2022-11-24T11:48:46;8.00;99.90
27200;DHT22;14714;48.106;11.546;2022-11-24T11:56:59;8.00;99.90
27200;DHT22;14714;48.106;11.546;2022-11-24T12:04:59;7.90;99.90
27200;DHT22;14714;48.106;11.546;2022-11-24T12:07:55;8.00;99.90
27200;DHT22;14714;48.106;11.546;2022-11-24T12:15:51;8.10;99.90
27200;DHT22;14714;48.106;11.546;2022-11-24T12:35:48;8.00;99.90
27200;DHT22;14714;48.106;11.546;2022-11-24T12:38:21;8.00;99.90
27200;DHT22;14714;48.106;11.546;2022-11-24T12:44:24;8.00;99.90
27200;DHT22;14714;48.106;11.546;2022-11-24T12:47:00;8.00;99.90
27200;DHT22;14714;48.106;11.546;2022-11-24T12:52:31;8.20;99.90
27200;DHT22;14714;48.106;11.546;2022-11-24T12:54:59;8.30;99.90
27200;DHT22;14714;48.106;11.546;2022-11-24T12:57:41;8.40;99.90
27200;DHT22;14714;48.106;11.546;2022-11-24T13:00:22;8.50;99.90
27200;DHT22;14714;48.106;11.546;2022-11-24T13:03:26;8.50;99.90
27200;DHT22;14714;48.106;11.546;2022-11-24T13:06:00;8.50;99.90
27200;DHT22;14714;48.106;11.546;2022-11-24T13:08:28;8.50;99.90
27200;DHT22;14714;48.106;11.546;2022-11-24T13:16:57;8.40;99.90
27200;DHT22;14714;48.106;11.546;2022-11-24T13:19:45;8.40;99.90
27200;DHT22;14714;48.106;11.546;2022-11-24T13:22:21;8.40;99.90
27200;DHT22;14714;48.106;11.546;2022-11-24T13:27:42;8.30;99.90
27200;DHT22;14714;48.106;11.546;2022-11-24T13:38:51;8.10;99.90
27200;DHT22;14714;48.106;11.546;2022-11-24T13:49:41;8.00;99.90
27200;DHT22;14714;48.106;11.546;2022-11-24T13:55:22;8.20;99.90
27200;DHT22;14714;48.106;11.546;2022-11-24T13:58:05;8.30;99.90
27200;DHT22;14714;48.106;11.546;2022-11-24T14:04:19;8.30;99.90
27200;DHT22;14714;48.106;11.546;2022-11-24T14:07:11;8.20;99.90
27200;DHT22;14714;48.106;11.546;2022-11-24T14:09:48;8.10;99.90
27200;DHT22;14714;48.106;11.546;2022-11-24T14:14:48;7.90;99.90
27200;DHT22;14714;48.106;11.546;2022-11-24T14:17:21;7.80;99.90
27200;DHT22;14714;48.106;11.546;2022-11-24T14:19:54;7.80;99.90
27200;DHT22;14714;48.106;11.546;2022-11-24T14:22:38;7.70;99.90
27200;DHT22;14714;48.106;11.546;2022-11-24T14:25:23;7.60;99.90
27200;DHT22;14714;48.106;11.546;2022-11-24T14:27:52;7.50;99.90
27200;DHT22;14714;48.106;11.546;2022-11-24T14:30:21;7.40;99.90
27200;DHT22;14714;48.106;11.546;2022-11-24T14:32:56;7.40;99.90
27200;DHT22;14714;48.106;11.546;2022-11-24T14:35:29;7.40;99.90
27200;DHT22;14714;48.106;11.546;2022-11-24T14:37:56;7.30;99.90
27200;DHT22;14714;48.106;11.546;2022-11-24T14:45:58;7.30;99.90
27200;DHT22;14714;48.106;11.546;2022-11-24T14:48:33;7.30;99.90
27200;DHT22;14714;48.106;11.546;2022-11-24T14:51:14;7.30;99.90
27200;DHT22;14714;48.106;11.546;2022-11-24T14:53:43;7.40;99.90
27200;DHT22;14714;48.106;11.546;2022-11-24T14:56:25;7.50;99.90
27200;DHT22;14714;48.106;11.546;2022-11-24T14:58:54;7.60;99.90
27200;DHT22;14714;48.106;11.546;2022-11-24T15:04:32;7.70;99.90
27200;DHT22;14714;48.106;11.546;2022-11-24T15:07:25;7.70;99.90
27200;DHT22;14714;48.106;11.546;2022-11-24T15:09:55;7.70;99.90
27200;DHT22;14714;48.106;11.546;2022-11-24T15:12:29;7.70;99.90
27200;DHT22;14714;48.106;11.546;2022-11-24T15:15:00;7.60;99.90
27200;DHT22;14714;48.106;11.546;2022-11-24T15:17:28;7.60;99.90
27200;DHT22;14714;48.106;11.546;2022-11-24T15:22:39;7.50;99.90
27200;DHT22;14714;48.106;11.546;2022-11-24T15:25:32;7.40;99.90
27200;DHT22;14714;48.106;11.546;2022-11-24T15:28:00;7.30;99.90
27200;DHT22;14714;48.106;11.546;2022-11-24T15:30:26;7.10;99.90
27200;DHT22;14714;48.106;11.546;2022-11-24T15:32:56;7.00;99.90
27200;DHT22;14714;48.106;11.546;2022-11-24T15:35:25;6.90;99.90
27200;DHT22;14714;48.106;11.546;2022-11-24T15:37:52;6.70;99.90
27200;DHT22;14714;48.106;11.546;2022-11-24T15:40:19;6.60;99.90
27200;DHT22;14714;48.106;11.546;2022-11-24T15:42:51;6.50;99.90
27200;DHT22;14714;48.106;11.546;2022-11-24T15:45:19;6.40;99.90
27200;DHT22;14714;48.106;11.546;2022-11-24T15:47:46;6.20;99.90
27200;DHT22;14714;48.106;11.546;2022-11-24T15:50:13;6.20;99.90
27200;DHT22;14714;48.106;11.546;2022-11-24T15:52:41;6.10;99.90
27200;DHT22;14714;48.106;11.546;2022-11-24T15:55:19;6.00;99.90
27200;DHT22;14714;48.106;11.546;2022-11-24T15:57:46;5.90;99.90
27200;DHT22;14714;48.106;11.546;2022-11-24T16:00:19;5.80;99.90
27200;DHT22;14714;48.106;11.546;2022-11-24T16:02:46;5.70;99.90
27200;DHT22;14714;48.106;11.546;2022-11-24T16:05:14;5.70;99.90
27200;DHT22;14714;48.106;11.546;2022-11-24T16:07:42;5.60;99.90
27200;DHT22;14714;48.106;11.546;2022-11-24T16:10:30;5.50;99.90
27200;DHT22;14714;48.106;11.546;2022-11-24T16:12:57;5.40;99.90
27200;DHT22;14714;48.106;11.546;2022-11-24T16:15:24;5.30;99.90
27200;DHT22;14714;48.106;11.546;2022-11-24T16:17:50;5.30;99.90
27200;DHT22;14714;48.106;11.546;2022-11-24T16:20:18;5.30;99.90
27200;DHT22;14714;48.106;11.546;2022-11-24T16:22:45;5.30;99.90
27200;DHT22;14714;48.106;11.546;2022-11-24T16:25:12;5.30;99.90
27200;DHT22;14714;48.106;11.546;2022-11-24T16:27:39;5.30;99.90
27200;DHT22;14714;48.106;11.546;2022-11-24T16:30:07;5.20;99.90
27200;DHT22;14714;48.106;11.546;2022-11-24T16:32:34;5.20;99.90
27200;DHT22;14714;48.106;11.546;2022-11-24T16:35:01;5.10;99.90
27200;DHT22;14714;48.106;11.546;2022-11-24T16:37:28;5.10;99.90
27200;DHT22;14714;48.106;11.546;2022-11-24T16:39:54;5.00;99.90
27200;DHT22;14714;48.106;11.546;2022-11-24T16:42:22;5.10;99.90
27200;DHT22;14714;48.106;11.546;2022-11-24T16:44:48;5.00;99.90
27200;DHT22;14714;48.106;11.546;2022-11-24T16:47:17;5.00;99.90
27200;DHT22;14714;48.106;11.546;2022-11-24T16:49:47;5.00;99.90
27200;DHT22;14714;48.106;11.546;2022-11-24T16:52:15;5.00;99.90
27200;DHT22;14714;48.106;11.546;2022-11-24T16:54:42;5.00;99.90
27200;DHT22;14714;48.106;11.546;2022-11-24T16:57:08;5.00;99.90
27200;DHT22;14714;48.106;11.546;2022-11-24T16:59:40;5.00;99.90
27200;DHT22;14714;48.106;11.546;2022-11-24T17:02:11;5.00;99.90
27200;DHT22;14714;48.106;11.546;2022-11-24T17:04:38;5.00;99.90
27200;DHT22;14714;48.106;11.546;2022-11-24T17:07:05;5.00;99.90
27200;DHT22;14714;48.106;11.546;2022-11-24T17:09:33;5.00;99.90
27200;DHT22;14714;48.106;11.546;2022-11-24T17:12:06;5.00;99.90
27200;DHT22;14714;48.106;11.546;2022-11-24T17:14:33;5.00;99.90
27200;DHT22;14714;48.106;11.546;2022-11-24T17:17:00;4.90;99.90
27200;DHT22;14714;48.106;11.546;2022-11-24T17:19:27;4.90;99.90
27200;DHT22;14714;48.106;11.546;2022-11-24T17:21:54;4.90;99.90
27200;DHT22;14714;48.106;11.546;2022-11-24T17:24:21;4.80;99.90
27200;DHT22;14714;48.106;11.546;2022-11-24T17:26:51;4.80;99.90
27200;DHT22;14714;48.106;11.546;2022-11-24T17:29:17;4.80;99.90
27200;DHT22;14714;48.106;11.546;2022-11-24T17:31:44;4.80;99.90
27200;DHT22;14714;48.106;11.546;2022-11-24T17:34:11;4.70;99.90
27200;DHT22;14714;48.106;11.546;2022-11-24T17:36:38;4.70;99.90
27200;DHT22;14714;48.106;11.546;2022-11-24T17:39:08;4.60;99.90
27200;DHT22;14714;48.106;11.546;2022-11-24T17:41:34;4.60;99.90
27200;DHT22;14714;48.106;11.546;2022-11-24T17:44:01;4.50;99.90
27200;DHT22;14714;48.106;11.546;2022-11-24T17:46:29;4.50;99.90
27200;DHT22;14714;48.106;11.546;2022-11-24T17:48:56;4.40;99.90
27200;DHT22;14714;48.106;11.546;2022-11-24T17:51:24;4.40;99.90